Vernon, Alabama
Current Conditions -  °F | °C
As of 7:58 AM on Friday 28 Nov 2014 (Local Time) from KCBM Reporting Station
Clear Clear  
Wind Chill: -4°   Ceiling: Unl
Heat Index:   Visibility: 10mi
Dew Point: -3°   Wind: 6mph
Humidity: 85%   Direction: 110°ESE
Pressure: 30.46"   Gusts: NA
Location:  33.76°N, 88.11°W
Report Text: KCBM 281358Z AUTO 11005KT 10SM CLR 00/M03 A3046 RMK AO2 SLP320 T10051028 $
Loading
Personal Weather Stations






























Interactive Weather Map New forecast layout! Learn more

10-Day Weather Forecast

Advertisements
Track Severe Weather on mobile